createdAt,value
2018-05-16T00:02:17.309Z,21.22
2018-05-16T00:04:45.699Z,21.14
2018-05-16T00:07:14.006Z,21.06
2018-05-16T00:09:42.329Z,21.05
2018-05-16T00:12:10.664Z,21.23
2018-05-16T00:14:41.603Z,21.07
2018-05-16T00:17:11.865Z,21.02
2018-05-16T00:19:40.335Z,20.71
2018-05-16T00:22:08.715Z,20.70
2018-05-16T00:24:37.118Z,20.61
2018-05-16T00:27:05.541Z,20.52
2018-05-16T00:29:34.671Z,20.45
2018-05-16T00:32:03.163Z,20.25
2018-05-16T00:34:31.575Z,20.13
2018-05-16T00:37:00.006Z,20.21
2018-05-16T00:39:29.304Z,20.10
2018-05-16T00:41:58.598Z,20.13
2018-05-16T00:44:28.014Z,19.92
2018-05-16T00:46:56.501Z,19.85
2018-05-16T00:49:24.908Z,19.78
2018-05-16T00:51:53.194Z,19.71
2018-05-16T00:54:21.544Z,19.75
2018-05-16T00:56:49.929Z,19.76
2018-05-16T00:59:18.526Z,19.65
2018-05-16T01:01:46.957Z,19.61
2018-05-16T01:04:16.170Z,19.65
2018-05-16T01:06:44.506Z,19.68
2018-05-16T01:09:12.919Z,19.76
2018-05-16T01:11:42.346Z,19.87
2018-05-16T01:14:10.949Z,19.93
2018-05-16T01:16:39.289Z,19.80
2018-05-16T01:19:08.439Z,19.74
2018-05-16T01:21:36.769Z,19.70
2018-05-16T01:24:05.059Z,19.76
2018-05-16T01:26:33.595Z,19.96
2018-05-16T01:29:02.041Z,19.86
2018-05-16T01:31:30.643Z,19.79
2018-05-16T01:33:59.003Z,19.70
2018-05-16T01:36:27.304Z,19.70
2018-05-16T01:38:55.629Z,19.76
2018-05-16T01:41:23.950Z,19.70
2018-05-16T01:43:52.470Z,19.78
2018-05-16T01:46:22.280Z,19.82
2018-05-16T01:49:10.475Z,19.82
2018-05-16T01:51:39.065Z,19.91
2018-05-16T01:54:07.399Z,19.92
2018-05-16T01:56:35.806Z,19.92
2018-05-16T01:59:04.262Z,19.91
2018-05-16T02:01:32.614Z,19.86
2018-05-16T02:04:02.063Z,19.69
2018-05-16T02:06:31.371Z,19.57
2018-05-16T02:08:59.680Z,19.64
2018-05-16T02:11:28.012Z,19.76
2018-05-16T02:13:56.365Z,19.86
2018-05-16T02:16:25.521Z,19.79
2018-05-16T02:18:54.020Z,19.73
2018-05-16T02:21:23.122Z,19.76
2018-05-16T02:23:52.359Z,19.77
2018-05-16T02:26:20.653Z,19.62
2018-05-16T02:28:48.980Z,19.43
2018-05-16T02:31:18.156Z,19.31
2018-05-16T02:33:46.629Z,19.35
2018-05-16T02:36:15.266Z,19.39
2018-05-16T02:38:43.684Z,19.49
2018-05-16T02:41:12.006Z,19.55
2018-05-16T02:43:41.140Z,19.62
2018-05-16T02:46:09.487Z,19.60
2018-05-16T02:48:37.841Z,19.56
2018-05-16T02:51:06.137Z,19.65
2018-05-16T02:53:35.230Z,19.68
2018-05-16T02:56:04.312Z,19.68
2018-05-16T02:58:33.397Z,19.70
2018-05-16T03:01:01.816Z,19.61
2018-05-16T03:03:30.250Z,19.25
2018-05-16T03:05:58.806Z,19.20
2018-05-16T03:08:27.279Z,19.22
2018-05-16T03:10:57.119Z,19.35
2018-05-16T03:13:25.806Z,19.31
2018-05-16T03:15:54.199Z,19.25
2018-05-16T03:18:22.556Z,19.25
2018-05-16T03:20:51.095Z,19.10
2018-05-16T03:23:19.446Z,19.07
2018-05-16T03:25:48.001Z,19.13
2018-05-16T03:28:16.356Z,19.11
2018-05-16T03:30:44.700Z,19.09
2018-05-16T03:33:13.890Z,19.01
2018-05-16T03:35:43.015Z,18.82
2018-05-16T03:38:13.112Z,19.01
2018-05-16T03:40:43.354Z,19.04
2018-05-16T03:43:11.681Z,19.07
2018-05-16T03:45:40.035Z,19.01
2018-05-16T03:48:08.476Z,19.00
2018-05-16T03:50:36.827Z,18.98
2018-05-16T03:53:05.111Z,18.93
2018-05-16T03:55:34.396Z,18.93
2018-05-16T03:58:29.439Z,18.93
2018-05-16T04:01:15.630Z,18.95
2018-05-16T04:04:01.771Z,18.94
2018-05-16T04:06:30.215Z,18.97
2018-05-16T04:08:58.564Z,18.79
2018-05-16T04:11:27.683Z,18.03
2018-05-16T04:13:57.142Z,17.95
2018-05-16T04:16:25.638Z,18.07
2018-05-16T04:18:54.182Z,18.22
2018-05-16T04:21:22.531Z,18.24
2018-05-16T04:23:51.036Z,18.45
2018-05-16T04:26:19.596Z,18.58
2018-05-16T04:28:48.318Z,18.61
2018-05-16T04:31:17.602Z,18.67
2018-05-16T04:33:45.941Z,18.77
2018-05-16T04:36:15.006Z,18.87
2018-05-16T04:38:43.341Z,18.93
2018-05-16T04:41:11.744Z,19.01
2018-05-16T04:43:40.084Z,19.15
2018-05-16T04:46:08.420Z,19.13
2018-05-16T04:48:37.004Z,19.20
2018-05-16T04:51:05.445Z,19.29
2018-05-16T04:53:33.762Z,19.30
2018-05-16T04:56:02.125Z,19.35
2018-05-16T04:58:30.438Z,19.41
2018-05-16T05:00:59.586Z,19.31
2018-05-16T05:03:28.023Z,19.33
2018-05-16T05:05:56.412Z,19.38
2018-05-16T05:08:24.814Z,19.36
2018-05-16T05:10:54.116Z,19.42
2018-05-16T05:13:22.476Z,19.48
2018-05-16T05:15:50.772Z,19.49
2018-05-16T05:18:19.332Z,19.33
2018-05-16T05:20:47.720Z,19.21
2018-05-16T05:23:16.104Z,19.23
2018-05-16T05:25:44.644Z,19.31
2018-05-16T05:28:13.821Z,19.46
2018-05-16T05:30:42.120Z,19.54
2018-05-16T05:33:10.481Z,19.53
2018-05-16T05:35:38.795Z,19.19
2018-05-16T05:38:08.031Z,19.08
2018-05-16T05:40:36.384Z,19.15
2018-05-16T05:43:04.767Z,19.24
2018-05-16T05:45:33.241Z,19.34
2018-05-16T05:48:01.812Z,19.46
2018-05-16T05:50:30.276Z,19.56
2018-05-16T05:52:59.530Z,19.68
2018-05-16T05:55:27.836Z,19.60
2018-05-16T05:57:56.322Z,19.67
2018-05-16T06:00:24.807Z,19.71
2018-05-16T06:02:54.209Z,19.76
2018-05-16T06:05:22.633Z,19.89
2018-05-16T06:07:50.952Z,19.84
2018-05-16T06:10:19.321Z,20.00
2018-05-16T06:12:48.157Z,19.90
2018-05-16T06:15:16.560Z,19.68
2018-05-16T06:17:44.925Z,19.68
2018-05-16T06:20:13.423Z,19.83
2018-05-16T06:22:41.754Z,19.92
2018-05-16T06:25:10.355Z,19.79
2018-05-16T06:27:39.421Z,19.75
2018-05-16T06:30:07.968Z,19.55
2018-05-16T06:32:36.514Z,19.43
2018-05-16T06:35:04.947Z,19.57
2018-05-16T06:37:33.878Z,19.63
2018-05-16T06:40:02.370Z,19.73
2018-05-16T06:42:31.006Z,19.85
2018-05-16T06:44:59.360Z,19.88
2018-05-16T06:47:27.702Z,19.93
2018-05-16T06:49:56.905Z,20.07
2018-05-16T06:52:25.994Z,20.22
2018-05-16T06:54:55.266Z,20.22
2018-05-16T06:57:23.612Z,20.06
2018-05-16T06:59:52.016Z,20.08
2018-05-16T07:02:21.174Z,20.13
2018-05-16T07:04:49.641Z,20.25
2018-05-16T07:07:18.031Z,20.39
2018-05-16T07:09:46.545Z,20.47
2018-05-16T07:12:16.005Z,20.65
2018-05-16T07:14:44.405Z,20.72
2018-05-16T07:17:12.774Z,20.70
2018-05-16T07:19:41.180Z,20.81
2018-05-16T07:22:09.543Z,20.83
2018-05-16T07:24:38.795Z,20.71
2018-05-16T07:27:07.320Z,20.66
2018-05-16T07:29:35.647Z,20.74
2018-05-16T07:32:03.972Z,20.69
2018-05-16T07:34:32.330Z,20.45
2018-05-16T07:37:00.786Z,20.39
2018-05-16T07:39:29.336Z,20.41
2018-05-16T07:41:58.485Z,20.42
2018-05-16T07:44:27.745Z,20.51
2018-05-16T07:46:56.281Z,20.68
2018-05-16T07:49:24.661Z,20.61
2018-05-16T07:51:53.046Z,20.72
2018-05-16T07:54:21.484Z,20.91
2018-05-16T07:56:50.610Z,20.96
2018-05-16T07:59:19.414Z,20.95
2018-05-16T08:01:47.763Z,20.94
2018-05-16T08:04:16.960Z,20.83
2018-05-16T08:06:45.461Z,20.77
2018-05-16T08:09:13.817Z,20.93
2018-05-16T08:11:44.022Z,20.98
2018-05-16T08:14:12.487Z,21.09
2018-05-16T08:16:40.913Z,21.07
2018-05-16T08:19:09.382Z,21.09
2018-05-16T08:21:38.517Z,20.98
2018-05-16T08:24:07.153Z,20.90
2018-05-16T08:26:36.307Z,20.88
2018-05-16T08:29:04.766Z,21.01
2018-05-16T08:31:33.172Z,21.19
2018-05-16T08:34:01.612Z,21.37
2018-05-16T08:36:29.957Z,21.23
2018-05-16T08:38:58.262Z,21.25
2018-05-16T08:41:26.712Z,21.34
2018-05-16T08:43:56.993Z,21.27
2018-05-16T08:46:25.556Z,21.16
2018-05-16T08:48:53.992Z,21.17
2018-05-16T08:51:22.421Z,21.12
2018-05-16T08:53:50.787Z,21.24
2018-05-16T08:56:19.316Z,21.32
2018-05-16T08:58:47.767Z,21.47
2018-05-16T09:01:16.154Z,21.74
2018-05-16T09:03:44.461Z,21.90
2018-05-16T09:06:12.826Z,22.10
2018-05-16T09:08:41.221Z,22.19
2018-05-16T09:11:09.567Z,22.22
2018-05-16T09:13:37.910Z,22.25
2018-05-16T09:16:07.055Z,22.24
2018-05-16T09:18:35.497Z,22.23
2018-05-16T09:21:04.110Z,22.28
2018-05-16T09:23:32.562Z,22.33
2018-05-16T09:26:01.133Z,22.25
2018-05-16T09:28:30.334Z,22.18
2018-05-16T09:30:59.442Z,22.15
2018-05-16T09:33:27.956Z,22.30
2018-05-16T09:35:56.360Z,22.43
2018-05-16T09:38:24.801Z,22.48
2018-05-16T09:40:53.143Z,22.45
2018-05-16T09:43:22.762Z,22.36
2018-05-16T09:45:51.544Z,22.28
2018-05-16T09:48:20.855Z,22.25
2018-05-16T09:50:49.235Z,22.31
2018-05-16T09:53:17.817Z,22.37
2018-05-16T09:55:46.990Z,22.37
2018-05-16T09:58:16.227Z,22.30
2018-05-16T10:00:44.722Z,22.26
2018-05-16T10:03:13.142Z,22.23
2018-05-16T10:05:41.533Z,22.30
2018-05-16T10:08:10.654Z,22.16
2018-05-16T10:10:39.008Z,22.05
2018-05-16T10:13:07.393Z,22.13
2018-05-16T10:15:35.769Z,22.15
2018-05-16T10:18:04.986Z,22.09
2018-05-16T10:20:33.482Z,22.02
2018-05-16T10:23:01.863Z,21.96
2018-05-16T10:25:30.207Z,21.98
2018-05-16T10:27:58.561Z,21.83
2018-05-16T10:30:26.945Z,21.77
2018-05-16T10:32:56.075Z,21.74
2018-05-16T10:35:24.482Z,21.94
2018-05-16T10:37:52.987Z,22.14
2018-05-16T10:40:21.427Z,22.25
2018-05-16T10:42:49.753Z,22.18
2018-05-16T10:45:18.101Z,22.14
2018-05-16T10:47:46.461Z,22.00
2018-05-16T10:50:14.798Z,21.84
2018-05-16T10:52:43.918Z,21.76
2018-05-16T10:55:12.274Z,21.77
2018-05-16T10:57:41.413Z,21.83
2018-05-16T11:00:09.723Z,21.91
2018-05-16T11:02:38.084Z,22.14
2018-05-16T11:05:06.489Z,22.38
2018-05-16T11:07:35.836Z,22.38
2018-05-16T11:10:05.194Z,22.53
2018-05-16T11:12:33.682Z,22.70
2018-05-16T11:15:03.624Z,22.59
2018-05-16T11:17:34.025Z,22.47
2018-05-16T11:20:02.906Z,22.39
2018-05-16T11:22:33.229Z,22.34
2018-05-16T11:25:02.528Z,22.33
2018-05-16T11:27:31.875Z,22.27
2018-05-16T11:30:00.229Z,22.24
2018-05-16T11:32:29.516Z,22.22
2018-05-16T11:34:58.629Z,22.17
2018-05-16T11:37:27.813Z,22.06
2018-05-16T11:39:56.968Z,21.91
2018-05-16T11:42:25.332Z,21.83
2018-05-16T11:44:54.512Z,21.77
2018-05-16T11:47:22.874Z,21.75
2018-05-16T11:49:52.023Z,21.71
2018-05-16T11:52:20.524Z,21.63
2018-05-16T11:54:49.069Z,21.58
2018-05-16T11:57:18.129Z,21.61
2018-05-16T11:59:46.785Z,21.54
2018-05-16T12:02:15.960Z,21.48
2018-05-16T12:04:44.554Z,21.46
2018-05-16T12:07:12.971Z,21.52
2018-05-16T12:09:41.587Z,21.60
2018-05-16T12:12:09.985Z,21.68
2018-05-16T12:14:38.614Z,21.77
2018-05-16T12:17:06.817Z,21.86
2018-05-16T12:19:35.328Z,21.92
2018-05-16T12:22:04.014Z,21.94
2018-05-16T12:24:32.379Z,21.77
2018-05-16T12:27:00.716Z,21.69
2018-05-16T12:29:29.215Z,21.79
2018-05-16T12:31:58.522Z,21.62
2018-05-16T12:34:26.882Z,21.79
2018-05-16T12:36:56.125Z,22.08
2018-05-16T12:39:25.043Z,22.17
2018-05-16T12:41:53.441Z,22.30
2018-05-16T12:44:21.958Z,22.36
2018-05-16T12:46:50.402Z,22.37
2018-05-16T12:49:19.571Z,22.33
2018-05-16T12:51:47.883Z,22.33
2018-05-16T12:54:16.207Z,22.17
2018-05-16T12:56:44.552Z,22.06
2018-05-16T12:59:12.930Z,22.01
2018-05-16T13:01:41.410Z,22.06
2018-05-16T13:04:09.956Z,22.02
2018-05-16T13:06:38.323Z,21.95
2018-05-16T13:09:06.737Z,21.95
2018-05-16T13:11:35.944Z,21.82
2018-05-16T13:14:05.132Z,21.79
2018-05-16T13:16:34.357Z,21.79
2018-05-16T13:19:02.702Z,21.83
2018-05-16T13:21:31.846Z,21.73
2018-05-16T13:24:00.184Z,21.69
2018-05-16T13:26:29.322Z,21.65
2018-05-16T13:28:57.704Z,21.59
2018-05-16T13:31:26.458Z,21.61
2018-05-16T13:33:55.836Z,21.63
2018-05-16T13:36:24.242Z,21.62
2018-05-16T13:38:52.624Z,21.59
2018-05-16T13:41:20.995Z,21.45
2018-05-16T13:43:50.205Z,21.57
2018-05-16T13:46:18.857Z,21.53
2018-05-16T13:48:47.358Z,21.62
2018-05-16T13:51:16.419Z,21.70
2018-05-16T13:53:44.841Z,22.10
2018-05-16T13:56:13.282Z,22.73
2018-05-16T13:58:41.738Z,23.16
2018-05-16T14:01:10.072Z,23.50
2018-05-16T14:03:38.473Z,23.90
2018-05-16T14:06:06.909Z,24.20
2018-05-16T14:08:35.237Z,24.45
2018-05-16T14:11:03.619Z,24.68
2018-05-16T14:13:32.584Z,24.92
2018-05-16T14:16:00.997Z,25.01
2018-05-16T14:18:29.439Z,24.92
2018-05-16T14:20:57.953Z,24.86
2018-05-16T14:23:27.378Z,25.03
2018-05-16T14:25:55.773Z,25.17
2018-05-16T14:28:25.034Z,25.28
2018-05-16T14:30:54.508Z,25.26
2018-05-16T14:33:22.944Z,25.14
2018-05-16T14:35:51.475Z,25.04
2018-05-16T14:38:19.897Z,24.81
2018-05-16T14:40:48.348Z,24.80
2018-05-16T14:43:16.897Z,24.90
2018-05-16T14:45:46.140Z,24.95
2018-05-16T14:48:14.595Z,24.83
2018-05-16T14:50:43.022Z,24.64
2018-05-16T14:53:12.183Z,24.51
2018-05-16T14:55:40.569Z,24.33
2018-05-16T14:58:08.906Z,24.05
2018-05-16T15:00:38.073Z,23.86
2018-05-16T15:03:07.855Z,23.31
2018-05-16T15:05:36.302Z,23.08
2018-05-16T15:08:05.481Z,22.88
2018-05-16T15:10:34.878Z,22.56
2018-05-16T15:13:03.203Z,22.50
2018-05-16T15:15:31.553Z,22.50
2018-05-16T15:18:00.725Z,22.43
2018-05-16T15:20:29.202Z,22.29
2018-05-16T15:22:57.962Z,22.21
2018-05-16T15:25:26.444Z,22.17
2018-05-16T15:27:54.773Z,22.28
2018-05-16T15:30:23.943Z,22.36
2018-05-16T15:32:52.289Z,22.28
2018-05-16T15:35:20.617Z,22.23
2018-05-16T15:37:50.299Z,22.00
2018-05-16T15:40:19.263Z,21.59
2018-05-16T15:42:47.869Z,21.82
2018-05-16T15:45:16.241Z,22.35
2018-05-16T15:47:44.590Z,23.18
2018-05-16T15:50:13.205Z,24.04
2018-05-16T15:52:41.797Z,24.95
2018-05-16T15:55:10.210Z,25.64
2018-05-16T15:57:38.552Z,26.18
2018-05-16T16:00:10.896Z,27.41
2018-05-16T16:02:39.292Z,27.82
2018-05-16T16:05:07.597Z,27.56
2018-05-16T16:07:37.554Z,26.88
2018-05-16T16:10:05.999Z,26.17
2018-05-16T16:12:34.567Z,25.60
2018-05-16T16:15:02.876Z,25.20
2018-05-16T16:17:32.085Z,24.96
2018-05-16T16:20:00.542Z,24.71
2018-05-16T16:22:29.093Z,24.48
2018-05-16T16:24:58.715Z,24.15
2018-05-16T16:27:27.957Z,23.73
2018-05-16T16:29:56.322Z,23.31
2018-05-16T16:32:24.814Z,23.19
2018-05-16T16:34:53.226Z,23.38
2018-05-16T16:37:21.576Z,23.49
2018-05-16T16:39:50.188Z,23.12
2018-05-16T16:42:18.652Z,22.74
2018-05-16T16:44:47.109Z,22.72
2018-05-16T16:47:15.560Z,22.44
2018-05-16T16:49:44.118Z,22.11
2018-05-16T16:52:12.528Z,21.08
2018-05-16T16:54:41.667Z,20.93
2018-05-16T16:57:10.241Z,20.37
2018-05-16T16:59:38.583Z,20.48
2018-05-16T17:02:07.885Z,20.51
2018-05-16T17:04:36.343Z,20.33
2018-05-16T17:09:40.332Z,20.87
2018-05-16T17:12:08.751Z,21.07
2018-05-16T17:14:38.185Z,21.27
2018-05-16T17:17:06.696Z,21.38
2018-05-16T17:19:35.570Z,21.40
2018-05-16T17:22:04.816Z,21.35
2018-05-16T17:24:33.311Z,21.60
2018-05-16T17:27:02.530Z,21.77
2018-05-16T17:29:31.193Z,21.58
2018-05-16T17:32:00.010Z,21.55
2018-05-16T17:34:29.618Z,21.77
2018-05-16T17:36:57.980Z,22.17
2018-05-16T17:39:26.690Z,22.51
2018-05-16T17:41:55.402Z,23.16
2018-05-16T17:44:24.057Z,23.27
2018-05-16T17:46:52.440Z,23.01
2018-05-16T17:49:21.016Z,22.67
2018-05-16T17:51:49.952Z,22.57
2018-05-16T17:54:19.210Z,22.38
2018-05-16T17:56:47.575Z,22.21
2018-05-16T17:59:16.217Z,22.11
2018-05-16T18:01:44.857Z,22.33
2018-05-16T18:04:13.362Z,22.48
2018-05-16T18:06:41.911Z,22.46
2018-05-16T18:09:10.492Z,22.56
2018-05-16T18:11:38.918Z,22.54
2018-05-16T18:14:25.957Z,22.59
2018-05-16T18:17:12.182Z,22.48
2018-05-16T18:19:40.600Z,22.44
2018-05-16T18:22:09.349Z,22.47
2018-05-16T18:24:37.796Z,22.53
2018-05-16T18:27:06.356Z,22.64
2018-05-16T18:29:35.921Z,22.33
2018-05-16T18:32:04.489Z,21.86
2018-05-16T18:34:32.920Z,21.40
2018-05-16T18:37:02.299Z,21.42
2018-05-16T18:39:30.857Z,21.35
2018-05-16T18:41:59.309Z,20.87
2018-05-16T18:44:27.770Z,20.77
2018-05-16T18:46:56.962Z,20.71
2018-05-16T18:49:25.425Z,20.85
2018-05-16T18:51:54.190Z,20.84
2018-05-16T18:54:22.693Z,21.08
2018-05-16T18:56:51.153Z,21.37
2018-05-16T18:59:19.905Z,21.54
2018-05-16T19:01:48.358Z,21.57
2018-05-16T19:04:17.774Z,21.72
2018-05-16T19:06:46.251Z,21.47
2018-05-16T19:09:14.693Z,21.20
2018-05-16T19:11:43.308Z,21.17
2018-05-16T19:14:11.738Z,21.06
2018-05-16T19:16:40.150Z,21.05
2018-05-16T19:19:09.495Z,21.16
2018-05-16T19:21:37.922Z,21.35
2018-05-16T19:24:07.913Z,21.50
2018-05-16T19:26:36.713Z,21.56
2018-05-16T19:29:05.083Z,21.54
2018-05-16T19:31:33.593Z,21.05
2018-05-16T19:34:01.981Z,20.54
2018-05-16T19:36:30.511Z,20.12
2018-05-16T19:38:59.321Z,19.82
2018-05-16T19:41:28.073Z,19.47
2018-05-16T19:43:56.903Z,19.16
2018-05-16T19:46:26.286Z,18.94
2018-05-16T19:48:54.823Z,18.73
2018-05-16T19:51:23.190Z,18.62
2018-05-16T19:53:51.624Z,18.51
2018-05-16T19:56:19.988Z,18.52
2018-05-16T19:58:49.485Z,18.50
2018-05-16T20:01:18.168Z,18.44
2018-05-16T20:03:46.585Z,18.38
2018-05-16T20:06:15.165Z,18.41
2018-05-16T20:08:43.804Z,18.55
2018-05-16T20:11:12.389Z,18.74
2018-05-16T20:13:40.754Z,18.81
2018-05-16T20:16:09.476Z,18.74
2018-05-16T20:18:38.730Z,18.79
2018-05-16T20:21:07.130Z,18.62
2018-05-16T20:23:35.560Z,18.58
2018-05-16T20:26:03.931Z,18.59
2018-05-16T20:28:33.864Z,18.66
2018-05-16T20:31:04.293Z,18.30
2018-05-16T20:33:33.444Z,18.12
2018-05-16T20:36:01.875Z,17.72
2018-05-16T20:38:31.364Z,17.63
2018-05-16T20:41:00.810Z,17.66
2018-05-16T20:43:29.261Z,17.68
2018-05-16T20:45:57.874Z,17.75
2018-05-16T20:48:26.424Z,17.90
2018-05-16T20:50:55.544Z,17.94
2018-05-16T20:53:23.911Z,17.75
2018-05-16T20:55:52.300Z,17.48
2018-05-16T20:58:20.641Z,17.24
2018-05-16T21:00:49.804Z,17.12
2018-05-16T21:03:18.299Z,16.94
2018-05-16T21:05:49.594Z,16.96
2018-05-16T21:08:18.075Z,16.65
2018-05-16T21:10:46.501Z,16.69
2018-05-16T21:13:14.926Z,16.56
2018-05-16T21:15:44.157Z,16.41
2018-05-16T21:18:12.730Z,16.46
2018-05-16T21:20:41.376Z,16.41
2018-05-16T21:23:10.571Z,16.29
2018-05-16T21:25:39.046Z,16.28
2018-05-16T21:28:08.280Z,16.33
2018-05-16T21:30:36.658Z,16.32
2018-05-16T21:33:05.132Z,16.22
2018-05-16T21:35:33.763Z,16.28
2018-05-16T21:38:02.217Z,16.21
2018-05-16T21:40:30.691Z,16.33
2018-05-16T21:42:59.106Z,16.36
2018-05-16T21:45:27.615Z,16.25
2018-05-16T21:47:56.039Z,16.11
2018-05-16T21:50:24.345Z,16.24
2018-05-16T21:52:52.719Z,16.35
2018-05-16T21:55:21.068Z,16.44
2018-05-16T21:57:49.632Z,16.63
2018-05-16T22:00:18.109Z,16.75
2018-05-16T22:02:47.344Z,16.61
2018-05-16T22:05:15.775Z,16.44
2018-05-16T22:07:44.102Z,16.21
2018-05-16T22:10:12.679Z,16.24
2018-05-16T22:12:42.759Z,16.45
2018-05-16T22:15:11.931Z,16.58
2018-05-16T22:17:40.301Z,16.67
2018-05-16T22:20:08.619Z,16.77
2018-05-16T22:22:37.131Z,16.85
2018-05-16T22:25:05.489Z,16.72
2018-05-16T22:27:33.949Z,16.78
2018-05-16T22:30:01.674Z,16.49
2018-05-16T22:32:35.440Z,16.49
2018-05-16T22:35:09.202Z,16.43
2018-05-16T22:37:43.276Z,16.42
2018-05-16T22:40:17.343Z,15.95
2018-05-16T22:42:45.138Z,15.82
2018-05-16T22:45:18.917Z,15.89
2018-05-16T22:47:48.013Z,16.02
2018-05-16T22:50:16.425Z,16.05
2018-05-16T22:52:45.021Z,15.80
2018-05-16T22:55:13.469Z,15.65
2018-05-16T22:57:41.940Z,15.27
2018-05-16T23:00:10.465Z,15.22
2018-05-16T23:02:38.885Z,15.22
2018-05-16T23:05:07.217Z,15.42
2018-05-16T23:07:35.589Z,15.62
2018-05-16T23:10:04.140Z,15.53
2018-05-16T23:12:33.247Z,15.48
2018-05-16T23:15:02.392Z,15.40
2018-05-16T23:17:30.899Z,15.42
2018-05-16T23:20:00.110Z,15.47
2018-05-16T23:22:29.188Z,15.57
2018-05-16T23:24:57.572Z,15.53
2018-05-16T23:27:26.795Z,15.47
2018-05-16T23:29:56.211Z,15.52
2018-05-16T23:32:24.649Z,15.58
2018-05-16T23:34:53.034Z,15.77
2018-05-16T23:37:22.180Z,15.88
2018-05-16T23:39:50.569Z,15.90
2018-05-16T23:42:20.239Z,15.99
2018-05-16T23:44:50.482Z,16.16
2018-05-16T23:47:18.976Z,16.23
2018-05-16T23:49:47.435Z,16.38
2018-05-16T23:52:15.794Z,16.46
2018-05-16T23:54:45.082Z,16.40
2018-05-16T23:57:13.501Z,16.54
2018-05-16T23:59:41.779Z,16.61
